Saturday, August 27, 2016
13:29 UTC
  |  Log In   |  Register Free
Airport Search:

New Richmond Regional Airport
(KRNH)

New Richmond Regional Airport Diagram
No Airport Diagram Available

FAA data valid effective Jul 21 2016 - Sep 15 2016 (unless otherwise noted).

 
 
 
 
 
 
 
 
 
 
 
 
 
 
Current Aviation Weather for KRNH

Weather Summary


The most recent METAR observation for RNH was updated at: 12:55 UTC
METAR for RNH is not available. Closest METAR is for
METAR

METAR KRNH 271315Z 10006KT 10SM OVC090 16/15 A3010 RMK AO2 T01550149

METAR KRNH 271255Z 11004KT 10SM OVC090 15/15 A3010 RMK AO2 P0001 T01530147

METAR KRNH 271235Z 00000KT 10SM SCT033 OVC090 15/15 A3010 RMK AO2 P0001 T01520146

METAR KRNH 271215Z 00000KT 10SM OVC090 15/15 A3010 RMK AO2 P0001 T01500145

METAR KRNH 271155Z 11003KT 10SM -DZ OVC090 15/14 A3009 RMK AO2 T01500143 10155 20149

METAR KRNH 271135Z 10005KT 10SM OVC100 15/14 A3007 RMK AO2 T01500143

METAR KRNH 271115Z 11006KT 10SM OVC100 15/14 A3008 RMK AO2 T01500143

METAR KRNH 271055Z 11005KT 10SM -RA OVC100 15/14 A3008 RMK AO2 T01500143

METAR KRNH 271035Z 10004KT 10SM -RA OVC100 15/14 A3008 RMK AO2 T01520142

METAR K21D 271313Z 09003KT 10SM OVC080 16/16 A3009 RMK AO2

METAR KANE 271250Z 08005KT 10SM OVC090 17/17 A3008

METAR KLUM 271315Z 08005KT 10SM OVC100 17/15 A3010 RMK AO2 T01690151

TAF for RNH is not available.
TAF

KRNH - TAF KRNH 271120Z 2712/2812 10003KT P6SM VCSH OVC090

KRNH - FM271700 12005KT P6SM BKN035 OVC070

KRNH - FM272200 14005KT P6SM SCT040 BKN150

KRNH - FM280800 00000KT 2SM BR SCT004 BKN100 =

KMSP - TAF KMSP 271120Z 2712/2818 12006KT P6SM -SHRA SCT025 OVC070

KMSP - FM271800 14005KT P6SM OVC050

KMSP - FM280200 15005KT P6SM BKN150 =

GlobalAir.com is loading additional information.
 Current Weather at RNH
59.0 F° (15.0 C°)

East winds at 3.5 mph
Pressure:
30.09 in
Humidity:
96%
Wind:
East at 3.5 mph
Dew Point:
57.7 F° (14.3 C°)
Visibility:
10.00 mi
RNH NOAA Radar




Find All Airport Services Find A Hotel Find A Rental Car Find A Golf Course Find A Restaurant $100 Hamburger



Airport Weather Forecast for KRNH

Translated METAR for KRNH (1315 UTC)
METAR:
KRNH 271315Z AUTO New Richmond Regional, New Richmond, WI (KRNH). Aug 27, 1315Z, Automated. Wind from 100° at 6 knots, 10 statute miles visibility, Ceiling is Overcast at 9,000 feet, Temperature 16°C, Dewpoint 15°C, Altimeter is 30.10. Remarks: automated station with precipitation discriminator hourly temp 15.5°C dewpoint 14.9°C
Conditions at:
KRNH (New Richmond Rgnl, WI) observed 1315 UTC 27 August 2016
Temperature:
59.0 F° (15.0 C°)
Dewpoint:
not reported - refer to area weather report
Pressure:
30.09 Hg
Winds:
East at 3.5 MPH (3 KT)
Visibility:
10.00
Ceiling:
at least 12,000 feet AGL
Clouds:
not reported - refer to area weather report
Remarks:
site is un-manned

Translated TAF for TAF for RNH is not available. Refer to local area forecast.
FBO's on the Field
FBO Company Facility Photos Services Transportation Aviation Fuel Prices: Prices include tax
Catering Weather Repair Courtesy Rental Type 100LL JetA JetA+ MOGAS 8087
 
East Metro Aviation

This FBO has not yet been rated
FS:Independent
Last Updated: Aug-05
Login to update fuel prices
SS:
Contact East Metro AviationMore FBO Information
 
Add another FBO Facility Photos Catering Weather Repair Courtesy Rental Type 100LL JetA JetA+ MOGAS 8087
Services Transportation Aviation Fuel Prices: Prices include tax


model-print
model-print
model-print
model-print